sensor_id;sensor_type;location;lat;lon;timestamp;P1;durP1;ratioP1;P2;durP2;ratioP2
28078;SDS011;15388;42.238;24.684;2023-07-24T00:00:22;12.67;;;8.47;;
28078;SDS011;15388;42.238;24.684;2023-07-24T00:02:47;12.87;;;9.70;;
28078;SDS011;15388;42.238;24.684;2023-07-24T00:05:13;11.43;;;8.97;;
28078;SDS011;15388;42.238;24.684;2023-07-24T00:07:38;11.25;;;8.65;;
28078;SDS011;15388;42.238;24.684;2023-07-24T00:10:03;12.23;;;9.23;;
28078;SDS011;15388;42.238;24.684;2023-07-24T00:12:29;14.25;;;9.40;;
28078;SDS011;15388;42.238;24.684;2023-07-24T00:14:54;12.88;;;8.77;;
28078;SDS011;15388;42.238;24.684;2023-07-24T00:17:19;11.67;;;8.20;;
28078;SDS011;15388;42.238;24.684;2023-07-24T00:19:45;14.30;;;8.68;;
28078;SDS011;15388;42.238;24.684;2023-07-24T00:22:10;18.03;;;9.20;;
28078;SDS011;15388;42.238;24.684;2023-07-24T00:24:35;14.57;;;10.27;;
28078;SDS011;15388;42.238;24.684;2023-07-24T00:27:00;14.30;;;8.77;;
28078;SDS011;15388;42.238;24.684;2023-07-24T00:29:26;14.73;;;10.20;;
28078;SDS011;15388;42.238;24.684;2023-07-24T00:31:51;13.50;;;9.30;;
28078;SDS011;15388;42.238;24.684;2023-07-24T00:34:17;10.45;;;9.02;;
28078;SDS011;15388;42.238;24.684;2023-07-24T00:36:42;10.10;;;8.43;;
28078;SDS011;15388;42.238;24.684;2023-07-24T00:39:07;12.77;;;9.68;;
28078;SDS011;15388;42.238;24.684;2023-07-24T00:41:32;12.00;;;9.53;;
28078;SDS011;15388;42.238;24.684;2023-07-24T00:43:58;14.93;;;7.70;;
28078;SDS011;15388;42.238;24.684;2023-07-24T00:46:23;12.07;;;9.48;;
28078;SDS011;15388;42.238;24.684;2023-07-24T00:48:49;12.00;;;9.45;;
28078;SDS011;15388;42.238;24.684;2023-07-24T00:51:15;12.73;;;9.80;;
28078;SDS011;15388;42.238;24.684;2023-07-24T00:53:40;12.68;;;9.00;;
28078;SDS011;15388;42.238;24.684;2023-07-24T00:56:05;11.70;;;9.10;;
28078;SDS011;15388;42.238;24.684;2023-07-24T00:58:32;15.57;;;9.82;;
28078;SDS011;15388;42.238;24.684;2023-07-24T01:00:58;12.60;;;9.00;;
28078;SDS011;15388;42.238;24.684;2023-07-24T01:03:23;20.55;;;10.50;;
28078;SDS011;15388;42.238;24.684;2023-07-24T01:05:55;19.90;;;9.73;;
28078;SDS011;15388;42.238;24.684;2023-07-24T01:08:21;13.30;;;10.02;;
28078;SDS011;15388;42.238;24.684;2023-07-24T01:10:46;12.17;;;9.83;;
28078;SDS011;15388;42.238;24.684;2023-07-24T01:13:15;12.75;;;9.77;;
28078;SDS011;15388;42.238;24.684;2023-07-24T01:16:14;14.50;;;9.73;;
28078;SDS011;15388;42.238;24.684;2023-07-24T01:18:32;14.60;;;9.35;;
28078;SDS011;15388;42.238;24.684;2023-07-24T01:20:59;12.40;;;9.48;;
28078;SDS011;15388;42.238;24.684;2023-07-24T01:28:19;15.50;;;10.43;;
28078;SDS011;15388;42.238;24.684;2023-07-24T01:30:44;13.60;;;10.07;;
28078;SDS011;15388;42.238;24.684;2023-07-24T01:33:09;12.43;;;9.70;;
28078;SDS011;15388;42.238;24.684;2023-07-24T01:35:34;14.60;;;9.85;;
28078;SDS011;15388;42.238;24.684;2023-07-24T01:38:00;15.35;;;9.93;;
28078;SDS011;15388;42.238;24.684;2023-07-24T01:40:26;12.88;;;9.77;;
28078;SDS011;15388;42.238;24.684;2023-07-24T01:42:51;15.37;;;10.47;;
28078;SDS011;15388;42.238;24.684;2023-07-24T01:45:17;12.50;;;9.32;;
28078;SDS011;15388;42.238;24.684;2023-07-24T01:47:42;13.10;;;9.38;;
28078;SDS011;15388;42.238;24.684;2023-07-24T01:50:07;11.93;;;8.93;;
28078;SDS011;15388;42.238;24.684;2023-07-24T01:52:33;12.00;;;9.00;;
28078;SDS011;15388;42.238;24.684;2023-07-24T01:54:58;13.40;;;9.95;;
28078;SDS011;15388;42.238;24.684;2023-07-24T01:57:23;12.07;;;9.48;;
28078;SDS011;15388;42.238;24.684;2023-07-24T01:59:48;14.07;;;9.87;;
28078;SDS011;15388;42.238;24.684;2023-07-24T02:02:14;39.42;;;12.20;;
28078;SDS011;15388;42.238;24.684;2023-07-24T02:04:39;19.63;;;9.38;;
28078;SDS011;15388;42.238;24.684;2023-07-24T02:07:04;16.35;;;9.77;;
28078;SDS011;15388;42.238;24.684;2023-07-24T02:09:30;13.73;;;10.23;;
28078;SDS011;15388;42.238;24.684;2023-07-24T02:11:55;16.42;;;9.40;;
28078;SDS011;15388;42.238;24.684;2023-07-24T02:14:20;15.88;;;10.88;;
28078;SDS011;15388;42.238;24.684;2023-07-24T02:16:46;12.68;;;9.65;;
28078;SDS011;15388;42.238;24.684;2023-07-24T02:19:11;14.75;;;9.50;;
28078;SDS011;15388;42.238;24.684;2023-07-24T02:21:36;13.17;;;9.23;;
28078;SDS011;15388;42.238;24.684;2023-07-24T02:24:01;66.50;;;12.63;;
28078;SDS011;15388;42.238;24.684;2023-07-24T02:26:27;19.15;;;9.80;;
28078;SDS011;15388;42.238;24.684;2023-07-24T02:28:52;12.67;;;10.43;;
28078;SDS011;15388;42.238;24.684;2023-07-24T02:31:18;12.93;;;8.80;;
28078;SDS011;15388;42.238;24.684;2023-07-24T02:33:44;20.35;;;9.48;;
28078;SDS011;15388;42.238;24.684;2023-07-24T02:36:09;14.23;;;9.97;;
28078;SDS011;15388;42.238;24.684;2023-07-24T02:38:34;14.60;;;9.65;;
28078;SDS011;15388;42.238;24.684;2023-07-24T02:41:00;13.35;;;9.75;;
28078;SDS011;15388;42.238;24.684;2023-07-24T02:43:25;16.97;;;9.40;;
28078;SDS011;15388;42.238;24.684;2023-07-24T02:45:50;24.73;;;10.37;;
28078;SDS011;15388;42.238;24.684;2023-07-24T02:48:15;18.38;;;10.00;;
28078;SDS011;15388;42.238;24.684;2023-07-24T02:50:41;14.40;;;9.38;;
28078;SDS011;15388;42.238;24.684;2023-07-24T02:53:06;18.20;;;10.40;;
28078;SDS011;15388;42.238;24.684;2023-07-24T02:55:31;16.87;;;10.50;;
28078;SDS011;15388;42.238;24.684;2023-07-24T02:57:56;14.32;;;10.10;;
28078;SDS011;15388;42.238;24.684;2023-07-24T03:00:22;23.02;;;10.43;;
28078;SDS011;15388;42.238;24.684;2023-07-24T03:02:47;29.45;;;10.88;;
28078;SDS011;15388;42.238;24.684;2023-07-24T03:05:12;18.33;;;11.03;;
28078;SDS011;15388;42.238;24.684;2023-07-24T03:07:37;25.55;;;11.15;;
28078;SDS011;15388;42.238;24.684;2023-07-24T03:10:03;28.67;;;10.97;;
28078;SDS011;15388;42.238;24.684;2023-07-24T03:12:28;30.08;;;12.02;;
28078;SDS011;15388;42.238;24.684;2023-07-24T03:14:53;15.43;;;11.00;;
28078;SDS011;15388;42.238;24.684;2023-07-24T03:17:19;25.88;;;11.63;;
28078;SDS011;15388;42.238;24.684;2023-07-24T03:19:44;21.95;;;11.18;;
28078;SDS011;15388;42.238;24.684;2023-07-24T03:22:09;18.20;;;11.45;;
28078;SDS011;15388;42.238;24.684;2023-07-24T03:24:35;19.88;;;10.50;;
28078;SDS011;15388;42.238;24.684;2023-07-24T03:27:01;24.55;;;11.18;;
28078;SDS011;15388;42.238;24.684;2023-07-24T03:29:26;17.52;;;11.13;;
28078;SDS011;15388;42.238;24.684;2023-07-24T03:31:51;18.45;;;12.07;;
28078;SDS011;15388;42.238;24.684;2023-07-24T03:34:17;24.60;;;12.45;;
28078;SDS011;15388;42.238;24.684;2023-07-24T03:36:42;20.13;;;12.27;;
28078;SDS011;15388;42.238;24.684;2023-07-24T03:39:09;27.27;;;11.10;;
28078;SDS011;15388;42.238;24.684;2023-07-24T03:41:34;34.15;;;13.25;;
28078;SDS011;15388;42.238;24.684;2023-07-24T03:43:59;20.25;;;10.68;;
28078;SDS011;15388;42.238;24.684;2023-07-24T03:46:25;22.57;;;11.03;;
28078;SDS011;15388;42.238;24.684;2023-07-24T03:48:50;38.85;;;12.80;;
28078;SDS011;15388;42.238;24.684;2023-07-24T03:51:15;25.10;;;12.23;;
28078;SDS011;15388;42.238;24.684;2023-07-24T03:53:41;15.43;;;10.48;;
28078;SDS011;15388;42.238;24.684;2023-07-24T03:56:06;16.03;;;10.53;;
28078;SDS011;15388;42.238;24.684;2023-07-24T03:58:31;17.30;;;10.47;;
28078;SDS011;15388;42.238;24.684;2023-07-24T04:00:56;16.43;;;11.10;;
28078;SDS011;15388;42.238;24.684;2023-07-24T04:03:21;14.13;;;11.35;;
28078;SDS011;15388;42.238;24.684;2023-07-24T04:05:47;33.75;;;12.05;;
28078;SDS011;15388;42.238;24.684;2023-07-24T04:08:12;21.23;;;10.68;;
28078;SDS011;15388;42.238;24.684;2023-07-24T04:10:37;21.60;;;13.83;;
28078;SDS011;15388;42.238;24.684;2023-07-24T04:13:03;47.17;;;15.35;;
28078;SDS011;15388;42.238;24.684;2023-07-24T04:15:28;35.70;;;13.93;;
28078;SDS011;15388;42.238;24.684;2023-07-24T04:17:53;26.02;;;13.38;;
28078;SDS011;15388;42.238;24.684;2023-07-24T04:20:18;20.97;;;13.53;;
28078;SDS011;15388;42.238;24.684;2023-07-24T04:22:43;23.05;;;14.40;;
28078;SDS011;15388;42.238;24.684;2023-07-24T04:25:09;21.98;;;15.25;;
28078;SDS011;15388;42.238;24.684;2023-07-24T04:27:34;20.87;;;12.30;;
28078;SDS011;15388;42.238;24.684;2023-07-24T04:29:59;34.50;;;13.23;;
28078;SDS011;15388;42.238;24.684;2023-07-24T04:32:26;19.02;;;13.55;;
28078;SDS011;15388;42.238;24.684;2023-07-24T04:34:51;19.98;;;13.90;;
28078;SDS011;15388;42.238;24.684;2023-07-24T04:37:16;36.63;;;14.97;;
28078;SDS011;15388;42.238;24.684;2023-07-24T04:39:41;24.77;;;13.87;;
28078;SDS011;15388;42.238;24.684;2023-07-24T04:42:07;25.02;;;14.60;;
28078;SDS011;15388;42.238;24.684;2023-07-24T04:44:32;27.77;;;14.73;;
28078;SDS011;15388;42.238;24.684;2023-07-24T04:46:58;23.53;;;13.83;;
28078;SDS011;15388;42.238;24.684;2023-07-24T04:49:23;27.55;;;14.15;;
28078;SDS011;15388;42.238;24.684;2023-07-24T04:51:49;25.30;;;13.20;;
28078;SDS011;15388;42.238;24.684;2023-07-24T04:54:16;20.42;;;13.55;;
28078;SDS011;15388;42.238;24.684;2023-07-24T04:56:41;18.83;;;11.68;;
28078;SDS011;15388;42.238;24.684;2023-07-24T04:59:06;17.17;;;11.50;;
28078;SDS011;15388;42.238;24.684;2023-07-24T05:01:32;16.38;;;11.95;;
28078;SDS011;15388;42.238;24.684;2023-07-24T05:03:57;16.00;;;13.48;;
28078;SDS011;15388;42.238;24.684;2023-07-24T05:06:22;21.08;;;13.93;;
28078;SDS011;15388;42.238;24.684;2023-07-24T05:08:49;21.05;;;13.60;;
28078;SDS011;15388;42.238;24.684;2023-07-24T05:11:15;25.10;;;17.13;;
28078;SDS011;15388;42.238;24.684;2023-07-24T05:13:40;26.00;;;18.33;;
28078;SDS011;15388;42.238;24.684;2023-07-24T05:16:05;28.03;;;20.17;;
28078;SDS011;15388;42.238;24.684;2023-07-24T05:18:30;34.90;;;21.50;;
28078;SDS011;15388;42.238;24.684;2023-07-24T05:20:55;36.03;;;21.67;;
28078;SDS011;15388;42.238;24.684;2023-07-24T05:23:21;29.38;;;20.95;;
28078;SDS011;15388;42.238;24.684;2023-07-24T05:25:46;32.80;;;22.70;;
28078;SDS011;15388;42.238;24.684;2023-07-24T05:28:11;31.48;;;21.40;;
28078;SDS011;15388;42.238;24.684;2023-07-24T05:30:37;28.52;;;22.63;;
28078;SDS011;15388;42.238;24.684;2023-07-24T05:33:02;33.83;;;26.20;;
28078;SDS011;15388;42.238;24.684;2023-07-24T05:35:27;36.17;;;26.23;;
28078;SDS011;15388;42.238;24.684;2023-07-24T05:37:54;34.30;;;23.92;;
28078;SDS011;15388;42.238;24.684;2023-07-24T05:40:19;32.37;;;24.17;;
28078;SDS011;15388;42.238;24.684;2023-07-24T05:42:44;36.07;;;23.37;;
28078;SDS011;15388;42.238;24.684;2023-07-24T05:45:11;36.67;;;28.23;;
28078;SDS011;15388;42.238;24.684;2023-07-24T05:47:37;37.00;;;28.35;;
28078;SDS011;15388;42.238;24.684;2023-07-24T05:50:02;39.55;;;28.88;;
28078;SDS011;15388;42.238;24.684;2023-07-24T05:52:28;40.72;;;31.23;;
28078;SDS011;15388;42.238;24.684;2023-07-24T05:54:53;42.30;;;31.77;;
28078;SDS011;15388;42.238;24.684;2023-07-24T05:57:19;51.05;;;33.38;;
28078;SDS011;15388;42.238;24.684;2023-07-24T05:59:45;44.90;;;33.13;;
28078;SDS011;15388;42.238;24.684;2023-07-24T06:02:10;43.83;;;32.80;;
28078;SDS011;15388;42.238;24.684;2023-07-24T06:04:36;48.13;;;36.53;;
28078;SDS011;15388;42.238;24.684;2023-07-24T06:07:01;43.03;;;31.77;;
28078;SDS011;15388;42.238;24.684;2023-07-24T06:09:26;47.45;;;30.35;;
28078;SDS011;15388;42.238;24.684;2023-07-24T06:11:52;39.73;;;30.70;;
28078;SDS011;15388;42.238;24.684;2023-07-24T06:14:17;37.17;;;28.93;;
28078;SDS011;15388;42.238;24.684;2023-07-24T06:16:42;39.72;;;27.50;;
28078;SDS011;15388;42.238;24.684;2023-07-24T06:19:07;34.33;;;26.83;;
28078;SDS011;15388;42.238;24.684;2023-07-24T06:21:33;34.90;;;27.67;;
28078;SDS011;15388;42.238;24.684;2023-07-24T06:23:58;38.50;;;27.23;;
28078;SDS011;15388;42.238;24.684;2023-07-24T06:26:23;34.70;;;27.53;;
28078;SDS011;15388;42.238;24.684;2023-07-24T06:28:48;35.60;;;26.93;;
28078;SDS011;15388;42.238;24.684;2023-07-24T06:31:13;32.50;;;26.63;;
28078;SDS011;15388;42.238;24.684;2023-07-24T06:33:39;35.93;;;26.37;;
28078;SDS011;15388;42.238;24.684;2023-07-24T06:36:08;35.20;;;26.77;;
28078;SDS011;15388;42.238;24.684;2023-07-24T06:38:33;36.60;;;25.52;;
28078;SDS011;15388;42.238;24.684;2023-07-24T06:40:59;34.60;;;27.20;;
28078;SDS011;15388;42.238;24.684;2023-07-24T06:43:24;32.40;;;26.57;;
28078;SDS011;15388;42.238;24.684;2023-07-24T06:45:49;33.25;;;26.35;;
28078;SDS011;15388;42.238;24.684;2023-07-24T06:48:14;35.87;;;26.43;;
28078;SDS011;15388;42.238;24.684;2023-07-24T06:50:40;36.53;;;26.03;;
28078;SDS011;15388;42.238;24.684;2023-07-24T06:53:05;36.40;;;24.97;;
28078;SDS011;15388;42.238;24.684;2023-07-24T06:55:30;31.23;;;25.27;;
28078;SDS011;15388;42.238;24.684;2023-07-24T06:57:55;33.23;;;26.27;;
28078;SDS011;15388;42.238;24.684;2023-07-24T07:00:21;32.67;;;25.30;;
28078;SDS011;15388;42.238;24.684;2023-07-24T07:02:46;29.93;;;23.90;;
28078;SDS011;15388;42.238;24.684;2023-07-24T07:05:11;29.03;;;24.57;;
28078;SDS011;15388;42.238;24.684;2023-07-24T07:07:36;29.38;;;23.25;;
28078;SDS011;15388;42.238;24.684;2023-07-24T07:10:02;36.22;;;24.52;;
28078;SDS011;15388;42.238;24.684;2023-07-24T07:12:27;28.52;;;23.30;;
28078;SDS011;15388;42.238;24.684;2023-07-24T07:14:52;30.27;;;23.65;;
28078;SDS011;15388;42.238;24.684;2023-07-24T07:17:17;32.63;;;22.53;;
28078;SDS011;15388;42.238;24.684;2023-07-24T07:19:43;31.67;;;24.67;;
28078;SDS011;15388;42.238;24.684;2023-07-24T07:22:08;59.80;;;26.13;;
28078;SDS011;15388;42.238;24.684;2023-07-24T07:24:33;36.17;;;24.37;;
28078;SDS011;15388;42.238;24.684;2023-07-24T07:26:58;29.10;;;23.17;;
28078;SDS011;15388;42.238;24.684;2023-07-24T07:29:24;30.23;;;22.97;;
28078;SDS011;15388;42.238;24.684;2023-07-24T07:31:49;53.95;;;26.15;;
28078;SDS011;15388;42.238;24.684;2023-07-24T07:34:14;26.17;;;22.40;;
28078;SDS011;15388;42.238;24.684;2023-07-24T07:36:39;39.37;;;24.63;;
28078;SDS011;15388;42.238;24.684;2023-07-24T07:39:05;31.93;;;23.40;;
28078;SDS011;15388;42.238;24.684;2023-07-24T07:41:30;29.83;;;22.17;;
28078;SDS011;15388;42.238;24.684;2023-07-24T07:43:55;25.88;;;21.58;;
28078;SDS011;15388;42.238;24.684;2023-07-24T07:46:20;28.50;;;23.03;;
28078;SDS011;15388;42.238;24.684;2023-07-24T07:48:46;31.02;;;23.48;;
28078;SDS011;15388;42.238;24.684;2023-07-24T07:51:11;27.90;;;21.75;;
28078;SDS011;15388;42.238;24.684;2023-07-24T07:53:37;31.35;;;22.08;;
28078;SDS011;15388;42.238;24.684;2023-07-24T07:56:03;28.67;;;22.63;;
28078;SDS011;15388;42.238;24.684;2023-07-24T07:58:28;34.78;;;21.90;;
28078;SDS011;15388;42.238;24.684;2023-07-24T08:00:53;30.10;;;22.03;;
28078;SDS011;15388;42.238;24.684;2023-07-24T08:03:19;27.47;;;20.73;;
28078;SDS011;15388;42.238;24.684;2023-07-24T08:05:44;23.90;;;19.77;;
28078;SDS011;15388;42.238;24.684;2023-07-24T08:08:11;27.55;;;20.08;;
28078;SDS011;15388;42.238;24.684;2023-07-24T08:10:39;25.83;;;19.13;;
28078;SDS011;15388;42.238;24.684;2023-07-24T08:13:04;23.15;;;19.00;;
28078;SDS011;15388;42.238;24.684;2023-07-24T08:15:33;44.40;;;19.85;;
28078;SDS011;15388;42.238;24.684;2023-07-24T08:17:59;25.90;;;18.65;;
28078;SDS011;15388;42.238;24.684;2023-07-24T08:20:24;23.02;;;18.95;;
28078;SDS011;15388;42.238;24.684;2023-07-24T08:22:49;23.07;;;17.53;;
28078;SDS011;15388;42.238;24.684;2023-07-24T08:25:14;31.43;;;18.37;;
28078;SDS011;15388;42.238;24.684;2023-07-24T08:27:40;24.63;;;19.17;;
28078;SDS011;15388;42.238;24.684;2023-07-24T08:30:05;25.03;;;19.30;;
28078;SDS011;15388;42.238;24.684;2023-07-24T08:32:30;24.38;;;17.73;;
28078;SDS011;15388;42.238;24.684;2023-07-24T08:34:56;26.73;;;18.05;;
28078;SDS011;15388;42.238;24.684;2023-07-24T08:37:21;27.65;;;18.90;;
28078;SDS011;15388;42.238;24.684;2023-07-24T08:39:46;33.42;;;19.30;;
28078;SDS011;15388;42.238;24.684;2023-07-24T08:42:12;22.25;;;19.30;;
28078;SDS011;15388;42.238;24.684;2023-07-24T08:44:37;25.83;;;20.08;;
28078;SDS011;15388;42.238;24.684;2023-07-24T08:47:03;26.42;;;18.60;;
28078;SDS011;15388;42.238;24.684;2023-07-24T08:49:29;31.42;;;19.70;;
28078;SDS011;15388;42.238;24.684;2023-07-24T08:51:54;27.83;;;19.95;;
28078;SDS011;15388;42.238;24.684;2023-07-24T08:54:20;21.47;;;19.00;;
28078;SDS011;15388;42.238;24.684;2023-07-24T08:56:45;25.50;;;18.60;;
28078;SDS011;15388;42.238;24.684;2023-07-24T08:59:14;24.35;;;18.33;;
28078;SDS011;15388;42.238;24.684;2023-07-24T09:01:39;21.67;;;17.90;;
28078;SDS011;15388;42.238;24.684;2023-07-24T09:04:05;20.37;;;17.20;;
28078;SDS011;15388;42.238;24.684;2023-07-24T09:06:30;20.63;;;17.87;;
28078;SDS011;15388;42.238;24.684;2023-07-24T09:08:55;22.80;;;17.30;;
28078;SDS011;15388;42.238;24.684;2023-07-24T09:11:20;22.73;;;19.33;;
28078;SDS011;15388;42.238;24.684;2023-07-24T09:13:46;26.35;;;18.90;;
28078;SDS011;15388;42.238;24.684;2023-07-24T09:16:21;27.15;;;19.25;;
28078;SDS011;15388;42.238;24.684;2023-07-24T09:18:47;21.67;;;17.60;;
28078;SDS011;15388;42.238;24.684;2023-07-24T09:21:12;24.93;;;19.30;;
28078;SDS011;15388;42.238;24.684;2023-07-24T09:23:37;24.13;;;18.67;;
28078;SDS011;15388;42.238;24.684;2023-07-24T09:26:06;25.90;;;18.05;;
28078;SDS011;15388;42.238;24.684;2023-07-24T09:28:31;30.07;;;17.97;;
28078;SDS011;15388;42.238;24.684;2023-07-24T09:30:58;23.10;;;17.53;;
28078;SDS011;15388;42.238;24.684;2023-07-24T09:33:39;19.60;;;17.10;;
28078;SDS011;15388;42.238;24.684;2023-07-24T09:36:05;28.63;;;15.95;;
28078;SDS011;15388;42.238;24.684;2023-07-24T09:38:33;22.65;;;17.35;;
28078;SDS011;15388;42.238;24.684;2023-07-24T09:41:00;24.57;;;17.57;;
28078;SDS011;15388;42.238;24.684;2023-07-24T09:43:27;39.65;;;19.13;;
28078;SDS011;15388;42.238;24.684;2023-07-24T09:45:53;22.67;;;18.08;;
28078;SDS011;15388;42.238;24.684;2023-07-24T09:48:19;18.93;;;16.73;;
28078;SDS011;15388;42.238;24.684;2023-07-24T09:50:45;19.13;;;17.13;;
28078;SDS011;15388;42.238;24.684;2023-07-24T09:53:19;24.77;;;18.08;;
28078;SDS011;15388;42.238;24.684;2023-07-24T09:56:04;18.30;;;16.23;;
28078;SDS011;15388;42.238;24.684;2023-07-24T09:58:29;33.80;;;19.38;;
28078;SDS011;15388;42.238;24.684;2023-07-24T10:00:57;19.95;;;16.33;;
28078;SDS011;15388;42.238;24.684;2023-07-24T10:03:22;19.40;;;16.97;;
28078;SDS011;15388;42.238;24.684;2023-07-24T10:05:48;21.57;;;17.70;;
28078;SDS011;15388;42.238;24.684;2023-07-24T10:08:17;20.67;;;16.77;;
28078;SDS011;15388;42.238;24.684;2023-07-24T10:10:42;20.75;;;18.65;;
28078;SDS011;15388;42.238;24.684;2023-07-24T10:13:08;24.60;;;17.27;;
28078;SDS011;15388;42.238;24.684;2023-07-24T10:15:35;20.00;;;17.85;;
28078;SDS011;15388;42.238;24.684;2023-07-24T10:18:05;18.33;;;16.13;;
28078;SDS011;15388;42.238;24.684;2023-07-24T10:20:34;21.17;;;15.05;;
28078;SDS011;15388;42.238;24.684;2023-07-24T10:23:00;18.20;;;16.02;;
28078;SDS011;15388;42.238;24.684;2023-07-24T10:25:33;22.00;;;15.98;;
28078;SDS011;15388;42.238;24.684;2023-07-24T10:28:02;20.50;;;16.27;;
28078;SDS011;15388;42.238;24.684;2023-07-24T10:30:31;16.95;;;15.15;;
28078;SDS011;15388;42.238;24.684;2023-07-24T10:33:06;16.20;;;14.63;;
28078;SDS011;15388;42.238;24.684;2023-07-24T10:35:49;20.70;;;15.45;;
28078;SDS011;15388;42.238;24.684;2023-07-24T10:38:16;40.72;;;16.80;;
28078;SDS011;15388;42.238;24.684;2023-07-24T10:40:42;19.43;;;15.83;;
28078;SDS011;15388;42.238;24.684;2023-07-24T10:43:11;22.93;;;16.67;;
28078;SDS011;15388;42.238;24.684;2023-07-24T10:45:41;29.00;;;15.63;;
28078;SDS011;15388;42.238;24.684;2023-07-24T10:48:06;18.83;;;14.75;;
28078;SDS011;15388;42.238;24.684;2023-07-24T10:50:39;16.97;;;14.23;;
28078;SDS011;15388;42.238;24.684;2023-07-24T10:53:04;19.58;;;14.88;;
28078;SDS011;15388;42.238;24.684;2023-07-24T10:55:29;60.10;;;19.73;;
28078;SDS011;15388;42.238;24.684;2023-07-24T10:57:55;28.17;;;16.00;;
28078;SDS011;15388;42.238;24.684;2023-07-24T11:00:20;21.83;;;15.23;;
28078;SDS011;15388;42.238;24.684;2023-07-24T11:02:45;16.13;;;14.43;;
28078;SDS011;15388;42.238;24.684;2023-07-24T11:05:11;17.33;;;15.63;;
28078;SDS011;15388;42.238;24.684;2023-07-24T11:07:37;26.95;;;15.88;;
28078;SDS011;15388;42.238;24.684;2023-07-24T11:10:02;17.83;;;15.60;;
28078;SDS011;15388;42.238;24.684;2023-07-24T11:12:27;19.93;;;14.70;;
28078;SDS011;15388;42.238;24.684;2023-07-24T11:14:55;17.92;;;16.08;;
28078;SDS011;15388;42.238;24.684;2023-07-24T11:17:21;16.63;;;14.23;;
28078;SDS011;15388;42.238;24.684;2023-07-24T11:19:46;16.23;;;14.20;;
28078;SDS011;15388;42.238;24.684;2023-07-24T11:22:12;17.33;;;15.53;;
28078;SDS011;15388;42.238;24.684;2023-07-24T11:24:45;16.40;;;14.80;;
28078;SDS011;15388;42.238;24.684;2023-07-24T11:27:14;19.08;;;14.35;;
28078;SDS011;15388;42.238;24.684;2023-07-24T11:29:40;20.70;;;15.18;;
28078;SDS011;15388;42.238;24.684;2023-07-24T11:32:05;17.07;;;13.90;;
28078;SDS011;15388;42.238;24.684;2023-07-24T11:34:31;19.83;;;15.47;;
28078;SDS011;15388;42.238;24.684;2023-07-24T11:36:56;29.17;;;16.57;;
28078;SDS011;15388;42.238;24.684;2023-07-24T11:39:22;18.97;;;15.73;;
28078;SDS011;15388;42.238;24.684;2023-07-24T11:41:47;16.77;;;15.10;;
28078;SDS011;15388;42.238;24.684;2023-07-24T11:44:13;17.67;;;15.80;;
28078;SDS011;15388;42.238;24.684;2023-07-24T11:46:41;15.82;;;14.23;;
28078;SDS011;15388;42.238;24.684;2023-07-24T11:51:33;18.25;;;16.20;;
28078;SDS011;15388;42.238;24.684;2023-07-24T11:54:07;22.70;;;14.95;;
28078;SDS011;15388;42.238;24.684;2023-07-24T11:56:33;19.90;;;16.42;;
28078;SDS011;15388;42.238;24.684;2023-07-24T11:59:08;18.63;;;15.77;;
28078;SDS011;15388;42.238;24.684;2023-07-24T12:01:33;17.27;;;15.60;;
28078;SDS011;15388;42.238;24.684;2023-07-24T12:03:59;16.67;;;15.00;;
28078;SDS011;15388;42.238;24.684;2023-07-24T12:06:24;16.53;;;14.83;;
28078;SDS011;15388;42.238;24.684;2023-07-24T12:08:51;16.90;;;15.10;;
28078;SDS011;15388;42.238;24.684;2023-07-24T12:11:17;17.67;;;15.53;;
28078;SDS011;15388;42.238;24.684;2023-07-24T12:13:43;20.92;;;16.58;;
28078;SDS011;15388;42.238;24.684;2023-07-24T12:16:08;16.73;;;14.83;;
28078;SDS011;15388;42.238;24.684;2023-07-24T12:18:33;21.10;;;15.30;;
28078;SDS011;15388;42.238;24.684;2023-07-24T12:20:59;16.02;;;14.32;;
28078;SDS011;15388;42.238;24.684;2023-07-24T12:23:25;19.20;;;15.53;;
28078;SDS011;15388;42.238;24.684;2023-07-24T12:25:50;17.83;;;15.17;;
28078;SDS011;15388;42.238;24.684;2023-07-24T12:28:15;19.63;;;15.27;;
28078;SDS011;15388;42.238;24.684;2023-07-24T12:30:40;16.20;;;14.43;;
28078;SDS011;15388;42.238;24.684;2023-07-24T12:33:06;17.27;;;15.03;;
28078;SDS011;15388;42.238;24.684;2023-07-24T12:35:31;17.27;;;15.47;;
28078;SDS011;15388;42.238;24.684;2023-07-24T12:37:56;17.93;;;16.20;;
28078;SDS011;15388;42.238;24.684;2023-07-24T12:40:22;17.95;;;15.82;;
28078;SDS011;15388;42.238;24.684;2023-07-24T12:42:47;16.63;;;15.03;;
28078;SDS011;15388;42.238;24.684;2023-07-24T12:45:13;20.87;;;13.80;;
28078;SDS011;15388;42.238;24.684;2023-07-24T12:47:38;16.17;;;14.50;;
28078;SDS011;15388;42.238;24.684;2023-07-24T12:50:03;16.50;;;15.00;;
28078;SDS011;15388;42.238;24.684;2023-07-24T12:52:29;17.17;;;14.50;;
28078;SDS011;15388;42.238;24.684;2023-07-24T12:54:54;16.10;;;13.67;;
28078;SDS011;15388;42.238;24.684;2023-07-24T12:57:19;15.77;;;14.20;;
28078;SDS011;15388;42.238;24.684;2023-07-24T12:59:44;16.87;;;14.47;;
28078;SDS011;15388;42.238;24.684;2023-07-24T13:02:10;23.17;;;13.40;;
28078;SDS011;15388;42.238;24.684;2023-07-24T13:04:35;16.03;;;13.20;;
28078;SDS011;15388;42.238;24.684;2023-07-24T13:07:00;15.83;;;14.17;;
28078;SDS011;15388;42.238;24.684;2023-07-24T13:09:26;14.63;;;12.77;;
28078;SDS011;15388;42.238;24.684;2023-07-24T13:11:52;14.10;;;12.63;;
28078;SDS011;15388;42.238;24.684;2023-07-24T13:14:19;14.75;;;13.30;;
28078;SDS011;15388;42.238;24.684;2023-07-24T13:16:44;19.50;;;14.13;;
28078;SDS011;15388;42.238;24.684;2023-07-24T13:19:10;20.20;;;14.07;;
28078;SDS011;15388;42.238;24.684;2023-07-24T13:21:35;14.53;;;13.07;;
28078;SDS011;15388;42.238;24.684;2023-07-24T13:24:00;16.90;;;13.07;;
28078;SDS011;15388;42.238;24.684;2023-07-24T13:26:26;14.80;;;13.33;;
28078;SDS011;15388;42.238;24.684;2023-07-24T13:28:51;14.40;;;13.00;;
28078;SDS011;15388;42.238;24.684;2023-07-24T13:31:17;15.23;;;13.73;;
28078;SDS011;15388;42.238;24.684;2023-07-24T13:33:43;14.30;;;12.77;;
28078;SDS011;15388;42.238;24.684;2023-07-24T13:36:08;13.37;;;11.97;;
28078;SDS011;15388;42.238;24.684;2023-07-24T13:38:34;15.73;;;13.93;;
28078;SDS011;15388;42.238;24.684;2023-07-24T13:40:59;16.25;;;13.20;;
28078;SDS011;15388;42.238;24.684;2023-07-24T13:43:24;22.13;;;14.03;;
28078;SDS011;15388;42.238;24.684;2023-07-24T13:45:50;18.50;;;14.07;;
28078;SDS011;15388;42.238;24.684;2023-07-24T13:48:15;15.37;;;13.77;;
28078;SDS011;15388;42.238;24.684;2023-07-24T13:50:40;15.17;;;13.60;;
28078;SDS011;15388;42.238;24.684;2023-07-24T13:53:05;14.87;;;13.37;;
28078;SDS011;15388;42.238;24.684;2023-07-24T13:55:31;17.93;;;14.00;;
28078;SDS011;15388;42.238;24.684;2023-07-24T13:57:56;16.57;;;13.03;;
28078;SDS011;15388;42.238;24.684;2023-07-24T14:00:21;16.30;;;13.30;;
28078;SDS011;15388;42.238;24.684;2023-07-24T14:02:46;14.67;;;13.23;;
28078;SDS011;15388;42.238;24.684;2023-07-24T14:05:12;14.87;;;13.40;;
28078;SDS011;15388;42.238;24.684;2023-07-24T14:07:37;15.00;;;13.23;;
28078;SDS011;15388;42.238;24.684;2023-07-24T14:10:02;15.20;;;13.73;;